sensor_id;sensor_type;location;lat;lon;timestamp;P1;P2;P0
70436;PMS5003;57877;39.750;-104.894;2022-09-09T00:00:34;7;7;
70436;PMS5003;57877;39.750;-104.894;2022-09-09T00:03:00;4;4;
70436;PMS5003;57877;39.750;-104.894;2022-09-09T00:05:25;5;4;
70436;PMS5003;57877;39.750;-104.894;2022-09-09T00:07:51;6;6;
70436;PMS5003;57877;39.750;-104.894;2022-09-09T00:10:16;18;17;
70436;PMS5003;57877;39.750;-104.894;2022-09-09T00:12:39;7;7;
70436;PMS5003;57877;39.750;-104.894;2022-09-09T00:15:05;7;7;
70436;PMS5003;57877;39.750;-104.894;2022-09-09T00:17:31;6;6;
70436;PMS5003;57877;39.750;-104.894;2022-09-09T00:19:55;5;5;
70436;PMS5003;57877;39.750;-104.894;2022-09-09T00:22:20;7;7;
70436;PMS5003;57877;39.750;-104.894;2022-09-09T00:24:45;7;7;
70436;PMS5003;57877;39.750;-104.894;2022-09-09T00:27:12;7;7;
70436;PMS5003;57877;39.750;-104.894;2022-09-09T00:29:35;6;6;
70436;PMS5003;57877;39.750;-104.894;2022-09-09T00:32:00;6;6;
70436;PMS5003;57877;39.750;-104.894;2022-09-09T00:34:24;7;7;
70436;PMS5003;57877;39.750;-104.894;2022-09-09T00:36:50;6;6;
70436;PMS5003;57877;39.750;-104.894;2022-09-09T00:39:23;6;6;
70436;PMS5003;57877;39.750;-104.894;2022-09-09T00:41:44;7;7;
70436;PMS5003;57877;39.750;-104.894;2022-09-09T00:44:13;5;4;
70436;PMS5003;57877;39.750;-104.894;2022-09-09T00:48:58;8;8;
70436;PMS5003;57877;39.750;-104.894;2022-09-09T00:51:22;6;6;
70436;PMS5003;57877;39.750;-104.894;2022-09-09T00:56:12;17;17;
70436;PMS5003;57877;39.750;-104.894;2022-09-09T00:58:35;14;13;
70436;PMS5003;57877;39.750;-104.894;2022-09-09T01:01:02;10;10;
70436;PMS5003;57877;39.750;-104.894;2022-09-09T01:03:28;9;9;
70436;PMS5003;57877;39.750;-104.894;2022-09-09T01:05:54;6;6;
70436;PMS5003;57877;39.750;-104.894;2022-09-09T01:08:19;7;7;
70436;PMS5003;57877;39.750;-104.894;2022-09-09T01:10:43;7;6;
70436;PMS5003;57877;39.750;-104.894;2022-09-09T01:13:08;7;7;
70436;PMS5003;57877;39.750;-104.894;2022-09-09T01:15:30;5;5;
70436;PMS5003;57877;39.750;-104.894;2022-09-09T01:17:58;9;7;
70436;PMS5003;57877;39.750;-104.894;2022-09-09T01:20:22;6;6;
70436;PMS5003;57877;39.750;-104.894;2022-09-09T01:22:50;5;4;
70436;PMS5003;57877;39.750;-104.894;2022-09-09T01:25:17;6;6;
70436;PMS5003;57877;39.750;-104.894;2022-09-09T01:27:36;5;5;
70436;PMS5003;57877;39.750;-104.894;2022-09-09T01:30:01;7;7;
70436;PMS5003;57877;39.750;-104.894;2022-09-09T01:34:53;5;5;
70436;PMS5003;57877;39.750;-104.894;2022-09-09T01:37:18;6;6;
70436;PMS5003;57877;39.750;-104.894;2022-09-09T01:39:43;6;6;
70436;PMS5003;57877;39.750;-104.894;2022-09-09T01:42:09;5;5;
70436;PMS5003;57877;39.750;-104.894;2022-09-09T01:44:33;6;6;
70436;PMS5003;57877;39.750;-104.894;2022-09-09T01:46:58;6;6;
70436;PMS5003;57877;39.750;-104.894;2022-09-09T01:49:23;6;6;
70436;PMS5003;57877;39.750;-104.894;2022-09-09T01:51:48;4;4;
70436;PMS5003;57877;39.750;-104.894;2022-09-09T01:54:13;5;5;
70436;PMS5003;57877;39.750;-104.894;2022-09-09T01:56:40;7;6;
70436;PMS5003;57877;39.750;-104.894;2022-09-09T01:59:07;6;6;
70436;PMS5003;57877;39.750;-104.894;2022-09-09T02:01:34;6;6;
70436;PMS5003;57877;39.750;-104.894;2022-09-09T02:03:57;4;4;
70436;PMS5003;57877;39.750;-104.894;2022-09-09T02:06:25;6;6;
70436;PMS5003;57877;39.750;-104.894;2022-09-09T02:08:47;6;6;
70436;PMS5003;57877;39.750;-104.894;2022-09-09T02:11:12;4;4;
70436;PMS5003;57877;39.750;-104.894;2022-09-09T02:13:36;5;5;
70436;PMS5003;57877;39.750;-104.894;2022-09-09T02:16:03;6;6;
70436;PMS5003;57877;39.750;-104.894;2022-09-09T02:18:28;4;4;
70436;PMS5003;57877;39.750;-104.894;2022-09-09T02:20:51;6;5;
70436;PMS5003;57877;39.750;-104.894;2022-09-09T02:23:17;6;6;
70436;PMS5003;57877;39.750;-104.894;2022-09-09T02:25:41;7;7;
70436;PMS5003;57877;39.750;-104.894;2022-09-09T02:28:06;5;5;
70436;PMS5003;57877;39.750;-104.894;2022-09-09T02:30:32;6;6;
70436;PMS5003;57877;39.750;-104.894;2022-09-09T02:32:57;5;5;
70436;PMS5003;57877;39.750;-104.894;2022-09-09T02:35:23;8;7;
70436;PMS5003;57877;39.750;-104.894;2022-09-09T02:37:48;5;5;
70436;PMS5003;57877;39.750;-104.894;2022-09-09T02:40:14;7;7;
70436;PMS5003;57877;39.750;-104.894;2022-09-09T02:42:39;5;5;
70436;PMS5003;57877;39.750;-104.894;2022-09-09T02:45:04;6;6;
70436;PMS5003;57877;39.750;-104.894;2022-09-09T02:47:30;5;5;
70436;PMS5003;57877;39.750;-104.894;2022-09-09T02:49:59;5;5;
70436;PMS5003;57877;39.750;-104.894;2022-09-09T02:52:24;5;5;
70436;PMS5003;57877;39.750;-104.894;2022-09-09T02:54:48;5;4;
70436;PMS5003;57877;39.750;-104.894;2022-09-09T02:57:14;4;4;
70436;PMS5003;57877;39.750;-104.894;2022-09-09T02:59:39;5;5;
70436;PMS5003;57877;39.750;-104.894;2022-09-09T03:02:05;4;4;
70436;PMS5003;57877;39.750;-104.894;2022-09-09T03:04:30;6;6;
70436;PMS5003;57877;39.750;-104.894;2022-09-09T03:06:57;4;4;
70436;PMS5003;57877;39.750;-104.894;2022-09-09T03:09:23;5;5;
70436;PMS5003;57877;39.750;-104.894;2022-09-09T03:11:49;4;4;
70436;PMS5003;57877;39.750;-104.894;2022-09-09T03:14:15;7;6;
70436;PMS5003;57877;39.750;-104.894;2022-09-09T03:16:40;4;4;
70436;PMS5003;57877;39.750;-104.894;2022-09-09T03:19:05;5;5;
70436;PMS5003;57877;39.750;-104.894;2022-09-09T03:21:30;5;5;
70436;PMS5003;57877;39.750;-104.894;2022-09-09T03:23:56;5;5;
70436;PMS5003;57877;39.750;-104.894;2022-09-09T03:26:22;3;3;
70436;PMS5003;57877;39.750;-104.894;2022-09-09T03:28:48;7;6;
70436;PMS5003;57877;39.750;-104.894;2022-09-09T03:31:14;4;4;
70436;PMS5003;57877;39.750;-104.894;2022-09-09T03:33:39;6;6;
70436;PMS5003;57877;39.750;-104.894;2022-09-09T03:36:04;5;5;
70436;PMS5003;57877;39.750;-104.894;2022-09-09T03:38:29;4;4;
70436;PMS5003;57877;39.750;-104.894;2022-09-09T03:40:55;5;5;
70436;PMS5003;57877;39.750;-104.894;2022-09-09T03:43:20;6;5;
70436;PMS5003;57877;39.750;-104.894;2022-09-09T03:45:46;7;7;
70436;PMS5003;57877;39.750;-104.894;2022-09-09T03:48:12;5;5;
70436;PMS5003;57877;39.750;-104.894;2022-09-09T03:50:38;6;6;
70436;PMS5003;57877;39.750;-104.894;2022-09-09T03:53:04;7;7;
70436;PMS5003;57877;39.750;-104.894;2022-09-09T03:55:30;5;5;
70436;PMS5003;57877;39.750;-104.894;2022-09-09T03:57:55;6;6;
70436;PMS5003;57877;39.750;-104.894;2022-09-09T04:00:20;6;6;
70436;PMS5003;57877;39.750;-104.894;2022-09-09T04:02:46;9;8;
70436;PMS5003;57877;39.750;-104.894;2022-09-09T04:05:11;9;8;
70436;PMS5003;57877;39.750;-104.894;2022-09-09T04:07:36;7;7;
70436;PMS5003;57877;39.750;-104.894;2022-09-09T04:10:01;5;5;
70436;PMS5003;57877;39.750;-104.894;2022-09-09T04:12:26;6;6;
70436;PMS5003;57877;39.750;-104.894;2022-09-09T04:14:52;6;6;
70436;PMS5003;57877;39.750;-104.894;2022-09-09T04:17:18;6;6;
70436;PMS5003;57877;39.750;-104.894;2022-09-09T04:19:44;6;6;
70436;PMS5003;57877;39.750;-104.894;2022-09-09T04:22:10;6;6;
70436;PMS5003;57877;39.750;-104.894;2022-09-09T04:24:36;6;4;
70436;PMS5003;57877;39.750;-104.894;2022-09-09T04:27:02;6;6;
70436;PMS5003;57877;39.750;-104.894;2022-09-09T04:29:28;6;6;
70436;PMS5003;57877;39.750;-104.894;2022-09-09T04:31:54;6;6;
70436;PMS5003;57877;39.750;-104.894;2022-09-09T04:34:20;5;5;
70436;PMS5003;57877;39.750;-104.894;2022-09-09T04:36:46;7;7;
70436;PMS5003;57877;39.750;-104.894;2022-09-09T04:39:12;8;8;
70436;PMS5003;57877;39.750;-104.894;2022-09-09T04:41:38;6;6;
70436;PMS5003;57877;39.750;-104.894;2022-09-09T04:44:04;7;7;
70436;PMS5003;57877;39.750;-104.894;2022-09-09T04:46:30;9;8;
70436;PMS5003;57877;39.750;-104.894;2022-09-09T04:48:56;6;6;
70436;PMS5003;57877;39.750;-104.894;2022-09-09T04:51:22;10;10;
70436;PMS5003;57877;39.750;-104.894;2022-09-09T04:53:48;8;7;
70436;PMS5003;57877;39.750;-104.894;2022-09-09T04:56:15;7;7;
70436;PMS5003;57877;39.750;-104.894;2022-09-09T04:58:40;9;9;
70436;PMS5003;57877;39.750;-104.894;2022-09-09T05:01:06;5;5;
70436;PMS5003;57877;39.750;-104.894;2022-09-09T05:03:32;8;8;
70436;PMS5003;57877;39.750;-104.894;2022-09-09T05:06:02;7;7;
70436;PMS5003;57877;39.750;-104.894;2022-09-09T05:08:24;7;7;
70436;PMS5003;57877;39.750;-104.894;2022-09-09T05:10:50;6;6;
70436;PMS5003;57877;39.750;-104.894;2022-09-09T05:13:16;7;6;
70436;PMS5003;57877;39.750;-104.894;2022-09-09T05:15:42;6;6;
70436;PMS5003;57877;39.750;-104.894;2022-09-09T05:18:08;6;6;
70436;PMS5003;57877;39.750;-104.894;2022-09-09T05:20:34;5;5;
70436;PMS5003;57877;39.750;-104.894;2022-09-09T05:23:00;6;6;
70436;PMS5003;57877;39.750;-104.894;2022-09-09T05:25:25;6;6;
70436;PMS5003;57877;39.750;-104.894;2022-09-09T05:27:50;5;4;
70436;PMS5003;57877;39.750;-104.894;2022-09-09T05:30:15;8;8;
70436;PMS5003;57877;39.750;-104.894;2022-09-09T05:32:41;7;6;
70436;PMS5003;57877;39.750;-104.894;2022-09-09T05:35:07;7;7;
70436;PMS5003;57877;39.750;-104.894;2022-09-09T05:37:33;6;6;
70436;PMS5003;57877;39.750;-104.894;2022-09-09T05:39:59;6;6;
70436;PMS5003;57877;39.750;-104.894;2022-09-09T05:42:28;5;5;
70436;PMS5003;57877;39.750;-104.894;2022-09-09T05:44:50;6;6;
70436;PMS5003;57877;39.750;-104.894;2022-09-09T05:47:16;9;7;
70436;PMS5003;57877;39.750;-104.894;2022-09-09T05:49:42;7;7;
70436;PMS5003;57877;39.750;-104.894;2022-09-09T05:52:07;7;7;
70436;PMS5003;57877;39.750;-104.894;2022-09-09T05:54:33;5;5;
70436;PMS5003;57877;39.750;-104.894;2022-09-09T05:56:58;7;7;
70436;PMS5003;57877;39.750;-104.894;2022-09-09T05:59:23;6;6;
70436;PMS5003;57877;39.750;-104.894;2022-09-09T06:01:48;6;6;
70436;PMS5003;57877;39.750;-104.894;2022-09-09T06:04:13;7;7;
70436;PMS5003;57877;39.750;-104.894;2022-09-09T06:06:38;7;6;
70436;PMS5003;57877;39.750;-104.894;2022-09-09T06:09:04;6;6;
70436;PMS5003;57877;39.750;-104.894;2022-09-09T06:11:29;9;9;
70436;PMS5003;57877;39.750;-104.894;2022-09-09T06:13:53;15;12;
70436;PMS5003;57877;39.750;-104.894;2022-09-09T06:16:20;14;12;
70436;PMS5003;57877;39.750;-104.894;2022-09-09T06:18:44;21;20;
70436;PMS5003;57877;39.750;-104.894;2022-09-09T06:21:11;25;24;
70436;PMS5003;57877;39.750;-104.894;2022-09-09T06:23:34;29;26;
70436;PMS5003;57877;39.750;-104.894;2022-09-09T06:26:01;30;27;
70436;PMS5003;57877;39.750;-104.894;2022-09-09T06:28:26;27;27;
70436;PMS5003;57877;39.750;-104.894;2022-09-09T06:30:57;34;32;
70436;PMS5003;57877;39.750;-104.894;2022-09-09T06:33:18;35;32;
70436;PMS5003;57877;39.750;-104.894;2022-09-09T06:38:10;36;33;
70436;PMS5003;57877;39.750;-104.894;2022-09-09T06:40:36;34;31;
70436;PMS5003;57877;39.750;-104.894;2022-09-09T06:43:01;35;31;
70436;PMS5003;57877;39.750;-104.894;2022-09-09T06:45:27;30;28;
70436;PMS5003;57877;39.750;-104.894;2022-09-09T06:47:54;31;29;
70436;PMS5003;57877;39.750;-104.894;2022-09-09T06:50:19;27;25;
70436;PMS5003;57877;39.750;-104.894;2022-09-09T06:52:46;27;26;
70436;PMS5003;57877;39.750;-104.894;2022-09-09T06:55:11;26;23;
70436;PMS5003;57877;39.750;-104.894;2022-09-09T06:57:37;22;21;
70436;PMS5003;57877;39.750;-104.894;2022-09-09T07:00:04;28;27;
70436;PMS5003;57877;39.750;-104.894;2022-09-09T07:02:29;27;24;
70436;PMS5003;57877;39.750;-104.894;2022-09-09T07:04:55;24;24;
70436;PMS5003;57877;39.750;-104.894;2022-09-09T07:07:21;25;24;
70436;PMS5003;57877;39.750;-104.894;2022-09-09T07:09:48;26;22;
70436;PMS5003;57877;39.750;-104.894;2022-09-09T07:12:14;22;22;
70436;PMS5003;57877;39.750;-104.894;2022-09-09T07:14:39;27;24;
70436;PMS5003;57877;39.750;-104.894;2022-09-09T07:17:06;21;21;
70436;PMS5003;57877;39.750;-104.894;2022-09-09T07:19:31;24;23;
70436;PMS5003;57877;39.750;-104.894;2022-09-09T07:21:57;22;21;
70436;PMS5003;57877;39.750;-104.894;2022-09-09T07:24:24;24;22;
70436;PMS5003;57877;39.750;-104.894;2022-09-09T07:26:50;23;23;
70436;PMS5003;57877;39.750;-104.894;2022-09-09T07:29:15;23;22;
70436;PMS5003;57877;39.750;-104.894;2022-09-09T07:31:42;21;20;
70436;PMS5003;57877;39.750;-104.894;2022-09-09T07:34:08;22;20;
70436;PMS5003;57877;39.750;-104.894;2022-09-09T07:36:34;22;22;
70436;PMS5003;57877;39.750;-104.894;2022-09-09T07:39:00;21;20;
70436;PMS5003;57877;39.750;-104.894;2022-09-09T07:41:26;22;21;
70436;PMS5003;57877;39.750;-104.894;2022-09-09T07:43:52;20;18;
70436;PMS5003;57877;39.750;-104.894;2022-09-09T07:46:18;20;20;
70436;PMS5003;57877;39.750;-104.894;2022-09-09T07:48:44;23;20;
70436;PMS5003;57877;39.750;-104.894;2022-09-09T07:51:11;20;20;
70436;PMS5003;57877;39.750;-104.894;2022-09-09T07:53:36;23;22;
70436;PMS5003;57877;39.750;-104.894;2022-09-09T07:56:03;20;19;
70436;PMS5003;57877;39.750;-104.894;2022-09-09T07:58:28;23;23;
70436;PMS5003;57877;39.750;-104.894;2022-09-09T08:00:54;21;21;
70436;PMS5003;57877;39.750;-104.894;2022-09-09T08:03:20;20;18;
70436;PMS5003;57877;39.750;-104.894;2022-09-09T08:05:46;19;19;
70436;PMS5003;57877;39.750;-104.894;2022-09-09T08:08:12;21;19;
70436;PMS5003;57877;39.750;-104.894;2022-09-09T08:10:38;18;18;
70436;PMS5003;57877;39.750;-104.894;2022-09-09T08:13:04;17;16;
70436;PMS5003;57877;39.750;-104.894;2022-09-09T08:15:30;20;19;
70436;PMS5003;57877;39.750;-104.894;2022-09-09T08:17:56;20;20;
70436;PMS5003;57877;39.750;-104.894;2022-09-09T08:20:21;19;19;
70436;PMS5003;57877;39.750;-104.894;2022-09-09T08:22:47;19;18;
70436;PMS5003;57877;39.750;-104.894;2022-09-09T08:25:14;21;21;
70436;PMS5003;57877;39.750;-104.894;2022-09-09T08:27:40;23;20;
70436;PMS5003;57877;39.750;-104.894;2022-09-09T08:30:06;21;20;
70436;PMS5003;57877;39.750;-104.894;2022-09-09T08:32:32;21;19;
70436;PMS5003;57877;39.750;-104.894;2022-09-09T08:34:58;21;21;
70436;PMS5003;57877;39.750;-104.894;2022-09-09T08:37:24;20;19;
70436;PMS5003;57877;39.750;-104.894;2022-09-09T08:39:50;20;19;
70436;PMS5003;57877;39.750;-104.894;2022-09-09T08:42:18;21;20;
70436;PMS5003;57877;39.750;-104.894;2022-09-09T08:44:46;20;19;
70436;PMS5003;57877;39.750;-104.894;2022-09-09T08:47:08;22;20;
70436;PMS5003;57877;39.750;-104.894;2022-09-09T08:51:59;20;19;
70436;PMS5003;57877;39.750;-104.894;2022-09-09T08:54:33;22;21;
70436;PMS5003;57877;39.750;-104.894;2022-09-09T08:56:51;22;21;
70436;PMS5003;57877;39.750;-104.894;2022-09-09T08:59:17;22;20;
70436;PMS5003;57877;39.750;-104.894;2022-09-09T09:01:45;21;21;
70436;PMS5003;57877;39.750;-104.894;2022-09-09T09:04:14;20;20;
70436;PMS5003;57877;39.750;-104.894;2022-09-09T09:06:39;20;18;
70436;PMS5003;57877;39.750;-104.894;2022-09-09T09:09:01;19;19;
70436;PMS5003;57877;39.750;-104.894;2022-09-09T09:11:26;21;21;
70436;PMS5003;57877;39.750;-104.894;2022-09-09T09:13:52;19;19;
70436;PMS5003;57877;39.750;-104.894;2022-09-09T09:16:19;19;19;
70436;PMS5003;57877;39.750;-104.894;2022-09-09T09:18:43;21;21;
70436;PMS5003;57877;39.750;-104.894;2022-09-09T09:21:10;19;18;
70436;PMS5003;57877;39.750;-104.894;2022-09-09T09:23:36;21;20;
70436;PMS5003;57877;39.750;-104.894;2022-09-09T09:26:01;20;20;
70436;PMS5003;57877;39.750;-104.894;2022-09-09T09:28:28;24;23;
70436;PMS5003;57877;39.750;-104.894;2022-09-09T09:30:54;20;19;
70436;PMS5003;57877;39.750;-104.894;2022-09-09T09:33:20;20;20;
70436;PMS5003;57877;39.750;-104.894;2022-09-09T09:35:45;19;16;
70436;PMS5003;57877;39.750;-104.894;2022-09-09T09:38:13;19;17;
70436;PMS5003;57877;39.750;-104.894;2022-09-09T09:40:37;20;19;
70436;PMS5003;57877;39.750;-104.894;2022-09-09T09:43:03;20;19;
70436;PMS5003;57877;39.750;-104.894;2022-09-09T09:45:32;20;19;
70436;PMS5003;57877;39.750;-104.894;2022-09-09T09:47:59;19;18;
70436;PMS5003;57877;39.750;-104.894;2022-09-09T09:50:21;19;19;
70436;PMS5003;57877;39.750;-104.894;2022-09-09T09:55:13;20;19;
70436;PMS5003;57877;39.750;-104.894;2022-09-09T09:57:39;20;19;
70436;PMS5003;57877;39.750;-104.894;2022-09-09T10:00:12;20;19;
70436;PMS5003;57877;39.750;-104.894;2022-09-09T10:02:31;20;20;
70436;PMS5003;57877;39.750;-104.894;2022-09-09T10:05:01;19;18;
70436;PMS5003;57877;39.750;-104.894;2022-09-09T10:07:23;20;18;
70436;PMS5003;57877;39.750;-104.894;2022-09-09T10:09:50;20;20;
70436;PMS5003;57877;39.750;-104.894;2022-09-09T10:12:18;20;19;
70436;PMS5003;57877;39.750;-104.894;2022-09-09T10:14:41;20;20;
70436;PMS5003;57877;39.750;-104.894;2022-09-09T10:17:09;20;20;
70436;PMS5003;57877;39.750;-104.894;2022-09-09T10:19:30;19;18;
70436;PMS5003;57877;39.750;-104.894;2022-09-09T10:22:02;18;17;
70436;PMS5003;57877;39.750;-104.894;2022-09-09T10:24:25;20;20;
70436;PMS5003;57877;39.750;-104.894;2022-09-09T10:26:49;20;17;
70436;PMS5003;57877;39.750;-104.894;2022-09-09T10:31:41;20;20;
70436;PMS5003;57877;39.750;-104.894;2022-09-09T10:34:12;20;19;
70436;PMS5003;57877;39.750;-104.894;2022-09-09T10:36:32;21;18;
70436;PMS5003;57877;39.750;-104.894;2022-09-09T10:38:58;20;18;
70436;PMS5003;57877;39.750;-104.894;2022-09-09T10:41:31;21;20;
70436;PMS5003;57877;39.750;-104.894;2022-09-09T10:43:54;20;19;
70436;PMS5003;57877;39.750;-104.894;2022-09-09T10:46:17;18;18;
70436;PMS5003;57877;39.750;-104.894;2022-09-09T10:48:46;20;20;
70436;PMS5003;57877;39.750;-104.894;2022-09-09T10:51:13;20;20;
70436;PMS5003;57877;39.750;-104.894;2022-09-09T10:53:35;20;18;
70436;PMS5003;57877;39.750;-104.894;2022-09-09T10:56:01;21;18;
70436;PMS5003;57877;39.750;-104.894;2022-09-09T10:58:27;23;21;
70436;PMS5003;57877;39.750;-104.894;2022-09-09T11:00:52;20;19;
70436;PMS5003;57877;39.750;-104.894;2022-09-09T11:03:18;18;18;
70436;PMS5003;57877;39.750;-104.894;2022-09-09T11:05:44;19;19;
70436;PMS5003;57877;39.750;-104.894;2022-09-09T11:08:10;21;20;
70436;PMS5003;57877;39.750;-104.894;2022-09-09T11:10:37;21;20;
70436;PMS5003;57877;39.750;-104.894;2022-09-09T11:13:02;19;19;
70436;PMS5003;57877;39.750;-104.894;2022-09-09T11:15:29;19;18;
70436;PMS5003;57877;39.750;-104.894;2022-09-09T11:17:53;19;18;
70436;PMS5003;57877;39.750;-104.894;2022-09-09T11:20:19;19;19;
70436;PMS5003;57877;39.750;-104.894;2022-09-09T11:22:46;21;20;
70436;PMS5003;57877;39.750;-104.894;2022-09-09T11:25:14;22;20;
70436;PMS5003;57877;39.750;-104.894;2022-09-09T11:27:37;21;19;
70436;PMS5003;57877;39.750;-104.894;2022-09-09T11:30:05;18;18;
70436;PMS5003;57877;39.750;-104.894;2022-09-09T11:34:56;19;18;
70436;PMS5003;57877;39.750;-104.894;2022-09-09T11:37:26;21;21;
70436;PMS5003;57877;39.750;-104.894;2022-09-09T11:39:51;19;18;
70436;PMS5003;57877;39.750;-104.894;2022-09-09T11:42:16;21;18;
70436;PMS5003;57877;39.750;-104.894;2022-09-09T11:44:38;21;19;
70436;PMS5003;57877;39.750;-104.894;2022-09-09T11:47:15;19;19;
70436;PMS5003;57877;39.750;-104.894;2022-09-09T11:49:41;20;20;
70436;PMS5003;57877;39.750;-104.894;2022-09-09T11:51:56;22;22;
70436;PMS5003;57877;39.750;-104.894;2022-09-09T11:54:27;19;19;
70436;PMS5003;57877;39.750;-104.894;2022-09-09T11:56:48;21;21;
70436;PMS5003;57877;39.750;-104.894;2022-09-09T12:01:41;23;21;
70436;PMS5003;57877;39.750;-104.894;2022-09-09T12:04:10;21;19;
70436;PMS5003;57877;39.750;-104.894;2022-09-09T12:06:32;20;20;
70436;PMS5003;57877;39.750;-104.894;2022-09-09T12:08:58;20;20;
70436;PMS5003;57877;39.750;-104.894;2022-09-09T12:11:25;21;21;
70436;PMS5003;57877;39.750;-104.894;2022-09-09T12:13:52;19;19;
70436;PMS5003;57877;39.750;-104.894;2022-09-09T12:18:40;19;18;
70436;PMS5003;57877;39.750;-104.894;2022-09-09T12:21:07;21;20;
70436;PMS5003;57877;39.750;-104.894;2022-09-09T12:23:34;20;19;
70436;PMS5003;57877;39.750;-104.894;2022-09-09T12:26:00;23;21;
70436;PMS5003;57877;39.750;-104.894;2022-09-09T12:28:25;20;19;
70436;PMS5003;57877;39.750;-104.894;2022-09-09T12:30:52;19;18;
70436;PMS5003;57877;39.750;-104.894;2022-09-09T12:33:16;20;19;
70436;PMS5003;57877;39.750;-104.894;2022-09-09T12:35:42;19;18;
70436;PMS5003;57877;39.750;-104.894;2022-09-09T12:38:10;20;20;
70436;PMS5003;57877;39.750;-104.894;2022-09-09T12:40:34;22;20;
70436;PMS5003;57877;39.750;-104.894;2022-09-09T12:43:00;18;18;
70436;PMS5003;57877;39.750;-104.894;2022-09-09T12:45:27;19;19;
70436;PMS5003;57877;39.750;-104.894;2022-09-09T12:47:53;17;16;
70436;PMS5003;57877;39.750;-104.894;2022-09-09T12:50:19;19;18;
70436;PMS5003;57877;39.750;-104.894;2022-09-09T12:52:44;20;20;
70436;PMS5003;57877;39.750;-104.894;2022-09-09T12:57:36;18;18;
70436;PMS5003;57877;39.750;-104.894;2022-09-09T13:00:04;16;16;
70436;PMS5003;57877;39.750;-104.894;2022-09-09T13:02:27;18;17;
70436;PMS5003;57877;39.750;-104.894;2022-09-09T13:04:53;16;16;
70436;PMS5003;57877;39.750;-104.894;2022-09-09T13:07:19;20;20;
70436;PMS5003;57877;39.750;-104.894;2022-09-09T13:09:45;16;15;
70436;PMS5003;57877;39.750;-104.894;2022-09-09T13:12:12;17;17;
70436;PMS5003;57877;39.750;-104.894;2022-09-09T13:14:36;15;15;
70436;PMS5003;57877;39.750;-104.894;2022-09-09T13:17:04;16;16;
70436;PMS5003;57877;39.750;-104.894;2022-09-09T13:19:29;18;17;
70436;PMS5003;57877;39.750;-104.894;2022-09-09T13:21:54;17;17;
70436;PMS5003;57877;39.750;-104.894;2022-09-09T13:24:25;17;15;
70436;PMS5003;57877;39.750;-104.894;2022-09-09T13:29:15;18;16;
70436;PMS5003;57877;39.750;-104.894;2022-09-09T13:31:39;20;17;
70436;PMS5003;57877;39.750;-104.894;2022-09-09T13:36:31;16;15;
70436;PMS5003;57877;39.750;-104.894;2022-09-09T13:38:57;17;16;
70436;PMS5003;57877;39.750;-104.894;2022-09-09T13:41:23;18;18;
70436;PMS5003;57877;39.750;-104.894;2022-09-09T13:43:48;17;16;
70436;PMS5003;57877;39.750;-104.894;2022-09-09T13:48:40;18;17;
70436;PMS5003;57877;39.750;-104.894;2022-09-09T13:53:32;18;15;
70436;PMS5003;57877;39.750;-104.894;2022-09-09T13:55:58;16;16;
70436;PMS5003;57877;39.750;-104.894;2022-09-09T13:58:24;17;17;
70436;PMS5003;57877;39.750;-104.894;2022-09-09T14:00:50;16;16;
70436;PMS5003;57877;39.750;-104.894;2022-09-09T14:03:16;18;17;
70436;PMS5003;57877;39.750;-104.894;2022-09-09T14:05:42;17;17;
70436;PMS5003;57877;39.750;-104.894;2022-09-09T14:08:10;16;15;
70436;PMS5003;57877;39.750;-104.894;2022-09-09T14:10:34;17;17;
70436;PMS5003;57877;39.750;-104.894;2022-09-09T14:13:00;18;16;
70436;PMS5003;57877;39.750;-104.894;2022-09-09T14:15:26;18;18;
70436;PMS5003;57877;39.750;-104.894;2022-09-09T14:17:52;17;16;
70436;PMS5003;57877;39.750;-104.894;2022-09-09T14:20:18;19;16;
70436;PMS5003;57877;39.750;-104.894;2022-09-09T14:22:44;14;13;
70436;PMS5003;57877;39.750;-104.894;2022-09-09T14:25:10;18;18;
70436;PMS5003;57877;39.750;-104.894;2022-09-09T14:27:35;16;16;
70436;PMS5003;57877;39.750;-104.894;2022-09-09T14:30:02;17;17;
70436;PMS5003;57877;39.750;-104.894;2022-09-09T14:32:28;18;18;
70436;PMS5003;57877;39.750;-104.894;2022-09-09T14:34:53;19;18;
70436;PMS5003;57877;39.750;-104.894;2022-09-09T14:37:19;18;17;
70436;PMS5003;57877;39.750;-104.894;2022-09-09T14:39:45;16;16;
70436;PMS5003;57877;39.750;-104.894;2022-09-09T14:42:11;20;19;
70436;PMS5003;57877;39.750;-104.894;2022-09-09T14:44:37;17;16;
70436;PMS5003;57877;39.750;-104.894;2022-09-09T14:47:03;18;17;
70436;PMS5003;57877;39.750;-104.894;2022-09-09T14:49:29;20;18;
70436;PMS5003;57877;39.750;-104.894;2022-09-09T14:51:56;18;18;
70436;PMS5003;57877;39.750;-104.894;2022-09-09T14:54:21;18;17;
70436;PMS5003;57877;39.750;-104.894;2022-09-09T14:56:47;17;16;
70436;PMS5003;57877;39.750;-104.894;2022-09-09T14:59:13;19;18;
70436;PMS5003;57877;39.750;-104.894;2022-09-09T15:01:39;17;17;
70436;PMS5003;57877;39.750;-104.894;2022-09-09T15:04:05;18;16;
70436;PMS5003;57877;39.750;-104.894;2022-09-09T15:06:31;21;20;
70436;PMS5003;57877;39.750;-104.894;2022-09-09T15:08:57;21;18;
70436;PMS5003;57877;39.750;-104.894;2022-09-09T15:11:23;16;16;
70436;PMS5003;57877;39.750;-104.894;2022-09-09T15:13:50;16;16;
70436;PMS5003;57877;39.750;-104.894;2022-09-09T15:16:15;19;19;
70436;PMS5003;57877;39.750;-104.894;2022-09-09T15:18:41;19;18;
70436;PMS5003;57877;39.750;-104.894;2022-09-09T15:21:07;17;16;
70436;PMS5003;57877;39.750;-104.894;2022-09-09T15:23:33;18;16;
70436;PMS5003;57877;39.750;-104.894;2022-09-09T15:25:59;12;12;
70436;PMS5003;57877;39.750;-104.894;2022-09-09T15:28:25;15;14;
70436;PMS5003;57877;39.750;-104.894;2022-09-09T15:30:51;14;14;
70436;PMS5003;57877;39.750;-104.894;2022-09-09T15:33:17;15;13;
70436;PMS5003;57877;39.750;-104.894;2022-09-09T15:35:43;15;15;
70436;PMS5003;57877;39.750;-104.894;2022-09-09T15:38:09;12;12;
70436;PMS5003;57877;39.750;-104.894;2022-09-09T15:40:35;13;13;
70436;PMS5003;57877;39.750;-104.894;2022-09-09T15:43:01;17;17;
70436;PMS5003;57877;39.750;-104.894;2022-09-09T15:45:27;13;13;
70436;PMS5003;57877;39.750;-104.894;2022-09-09T15:47:53;16;14;
70436;PMS5003;57877;39.750;-104.894;2022-09-09T15:50:18;17;17;
70436;PMS5003;57877;39.750;-104.894;2022-09-09T15:52:44;15;15;
70436;PMS5003;57877;39.750;-104.894;2022-09-09T15:55:10;12;10;
70436;PMS5003;57877;39.750;-104.894;2022-09-09T15:57:36;16;14;
70436;PMS5003;57877;39.750;-104.894;2022-09-09T16:00:03;14;14;
70436;PMS5003;57877;39.750;-104.894;2022-09-09T16:02:28;16;16;
70436;PMS5003;57877;39.750;-104.894;2022-09-09T16:04:54;17;16;
70436;PMS5003;57877;39.750;-104.894;2022-09-09T16:07:20;19;18;